createdAt,value
2022-08-10T00:01:09.726Z,26.70
2022-08-10T00:03:36.097Z,26.62
2022-08-10T00:06:02.470Z,26.59
2022-08-10T00:08:28.860Z,26.65
2022-08-10T00:10:55.300Z,26.62
2022-08-10T00:13:21.661Z,26.57
2022-08-10T00:15:53.724Z,26.47
2022-08-10T00:18:31.469Z,26.48
2022-08-10T00:20:40.887Z,26.51
2022-08-10T00:23:07.250Z,26.55
2022-08-10T00:25:33.618Z,26.52
2022-08-10T00:28:03.532Z,26.46
2022-08-10T00:30:26.409Z,26.36
2022-08-10T00:32:52.786Z,26.29
2022-08-10T00:35:19.149Z,26.16
2022-08-10T00:37:45.539Z,26.03
2022-08-10T00:40:11.981Z,26.03
2022-08-10T00:42:38.339Z,26.15
2022-08-10T00:45:04.764Z,26.20
2022-08-10T00:47:36.009Z,26.15
2022-08-10T00:49:57.609Z,26.05
2022-08-10T00:52:23.992Z,26.03
2022-08-10T00:54:50.377Z,26.03
2022-08-10T00:57:18.748Z,26.04
2022-08-10T00:59:59.393Z,25.94
2022-08-10T01:02:11.801Z,25.82
2022-08-10T01:05:00.231Z,25.75
2022-08-10T01:07:02.372Z,25.75
2022-08-10T01:09:28.770Z,25.73
2022-08-10T01:12:38.385Z,25.73
2022-08-10T01:14:21.633Z,25.78
2022-08-10T01:16:47.994Z,25.80
2022-08-10T01:19:14.377Z,25.82
2022-08-10T01:21:41.849Z,25.92
2022-08-10T01:24:07.266Z,26.02
2022-08-10T01:26:33.627Z,26.01
2022-08-10T01:28:59.989Z,25.95
2022-08-10T01:31:26.351Z,26.07
2022-08-10T01:33:58.601Z,26.09
2022-08-10T01:36:19.139Z,26.11
2022-08-10T01:38:45.520Z,26.10
2022-08-10T01:41:11.985Z,26.03
2022-08-10T01:43:38.353Z,26.00
2022-08-10T01:46:04.753Z,26.04
2022-08-10T01:48:31.262Z,26.03
2022-08-10T01:51:00.142Z,26.01
2022-08-10T01:53:23.865Z,25.99
2022-08-10T01:55:50.227Z,26.09
2022-08-10T01:58:16.594Z,26.14
2022-08-10T02:00:43.041Z,26.06
2022-08-10T02:03:09.441Z,26.06
2022-08-10T02:05:35.823Z,26.03
2022-08-10T02:08:02.181Z,26.04
2022-08-10T02:10:28.547Z,26.04
2022-08-10T02:12:55.002Z,26.00
2022-08-10T02:15:21.360Z,25.94
2022-08-10T02:18:00.499Z,25.80
2022-08-10T02:20:14.199Z,25.70
2022-08-10T02:22:40.582Z,25.66
2022-08-10T02:25:06.994Z,25.67
2022-08-10T02:27:33.396Z,25.71
2022-08-10T02:29:59.827Z,25.73
2022-08-10T02:32:38.271Z,25.76
2022-08-10T02:34:52.591Z,25.72
2022-08-10T02:37:18.958Z,25.59
2022-08-10T02:39:45.357Z,25.51
2022-08-10T02:45:12.481Z,25.42
2022-08-10T02:45:19.860Z,25.39
2022-08-10T02:47:04.417Z,25.38
2022-08-10T02:49:30.783Z,25.40
2022-08-10T02:52:07.615Z,25.34
2022-08-10T02:54:23.671Z,25.40
2022-08-10T02:56:50.080Z,25.49
2022-08-10T02:59:17.572Z,25.55
2022-08-10T03:01:42.905Z,25.62
2022-08-10T03:04:09.381Z,25.63
2022-08-10T03:06:35.763Z,25.62
2022-08-10T03:09:02.119Z,25.67
2022-08-10T03:12:37.158Z,25.68
2022-08-10T03:14:00.007Z,25.57
2022-08-10T03:16:21.258Z,25.46
2022-08-10T03:18:47.641Z,25.44
2022-08-10T03:21:14.009Z,25.43
2022-08-10T03:23:40.381Z,25.51
2022-08-10T03:26:06.764Z,25.48
2022-08-10T03:28:33.120Z,25.59
2022-08-10T03:30:59.630Z,25.56
2022-08-10T03:33:26.066Z,25.60
2022-08-10T03:36:42.054Z,25.65
2022-08-10T03:38:18.813Z,25.67
2022-08-10T03:40:46.720Z,25.69
2022-08-10T03:43:11.566Z,25.72
2022-08-10T03:45:54.135Z,25.65
2022-08-10T03:48:04.295Z,25.66
2022-08-10T03:50:51.271Z,25.56
2022-08-10T03:52:57.166Z,25.54
2022-08-10T03:56:27.189Z,25.54
2022-08-10T03:57:49.935Z,25.55
2022-08-10T04:00:16.314Z,25.60
2022-08-10T04:02:53.004Z,25.65
2022-08-10T04:05:09.083Z,25.69
2022-08-10T04:07:35.504Z,25.72
2022-08-10T04:10:01.944Z,25.72
2022-08-10T04:12:28.369Z,25.73
2022-08-10T04:14:54.741Z,25.76
2022-08-10T04:17:56.846Z,25.73
2022-08-10T04:19:47.506Z,25.73
2022-08-10T04:22:13.867Z,25.79
2022-08-10T04:24:40.257Z,25.85
2022-08-10T04:27:06.655Z,25.80
2022-08-10T04:29:33.016Z,25.87
2022-08-10T04:31:59.406Z,25.93
2022-08-10T04:34:25.821Z,25.95
2022-08-10T04:36:52.296Z,25.93
2022-08-10T04:39:18.681Z,25.93
2022-08-10T04:41:46.194Z,25.95
2022-08-10T04:44:11.452Z,25.89
2022-08-10T04:46:42.798Z,25.85
2022-08-10T04:49:04.842Z,25.88
2022-08-10T04:51:30.692Z,25.93
2022-08-10T04:54:05.110Z,25.95
2022-08-10T04:56:32.115Z,26.03
2022-08-10T04:58:49.800Z,26.13
2022-08-10T05:01:16.235Z,26.22
2022-08-10T05:04:34.403Z,26.30
2022-08-10T05:06:09.014Z,26.35
2022-08-10T05:08:35.396Z,26.40
2022-08-10T05:11:01.791Z,26.37
2022-08-10T05:13:28.158Z,26.42
2022-08-10T05:15:54.614Z,26.47
2022-08-10T05:18:21.012Z,26.56
2022-08-10T05:20:50.204Z,26.78
2022-08-10T05:23:13.841Z,26.98
2022-08-10T05:25:40.225Z,27.13
2022-08-10T05:28:07.049Z,27.11
2022-08-10T05:30:32.957Z,27.21
2022-08-10T05:33:02.685Z,27.20
2022-08-10T05:35:25.696Z,27.18
2022-08-10T05:38:13.000Z,27.24
2022-08-10T05:40:18.563Z,27.46
2022-08-10T05:42:44.929Z,27.70
2022-08-10T05:45:11.298Z,27.93
2022-08-10T05:48:54.255Z,28.03
2022-08-10T05:50:04.105Z,28.20
2022-08-10T05:52:30.489Z,28.25
2022-08-10T05:55:02.265Z,28.28
2022-08-10T05:57:23.371Z,28.51
2022-08-10T06:00:10.713Z,28.74
2022-08-10T06:02:32.782Z,28.87
2022-08-10T06:04:42.582Z,28.79
2022-08-10T06:07:08.970Z,28.88
2022-08-10T06:09:35.330Z,29.01
2022-08-10T06:12:24.633Z,29.08
2022-08-10T06:14:28.546Z,29.11
2022-08-10T06:16:54.527Z,29.19
2022-08-10T06:19:20.903Z,29.19
2022-08-10T06:22:01.206Z,29.26
2022-08-10T06:24:13.651Z,29.47
2022-08-10T06:26:40.051Z,29.72
2022-08-10T06:29:06.431Z,29.85
2022-08-10T06:31:46.981Z,30.09
2022-08-10T06:33:59.269Z,30.34
2022-08-10T06:36:25.649Z,30.57
2022-08-10T06:38:52.024Z,30.68
2022-08-10T06:41:20.170Z,30.75
2022-08-10T06:43:44.874Z,30.73
2022-08-10T06:46:11.310Z,30.81
2022-08-10T06:48:37.685Z,30.95
2022-08-10T06:51:04.058Z,31.09
2022-08-10T06:53:52.792Z,31.24
2022-08-10T06:55:57.190Z,31.35
2022-08-10T06:58:23.669Z,31.42
2022-08-10T07:00:49.713Z,31.64
2022-08-10T07:03:16.092Z,31.67
2022-08-10T07:05:42.906Z,31.86
2022-08-10T07:08:09.032Z,31.96
2022-08-10T07:10:41.086Z,32.03
2022-08-10T07:13:01.863Z,32.08
2022-08-10T07:15:59.572Z,32.04
2022-08-10T07:17:54.626Z,32.06
2022-08-10T07:20:21.022Z,32.06
2022-08-10T07:23:01.358Z,32.15
2022-08-10T07:25:14.146Z,32.19
2022-08-10T07:27:59.064Z,32.23
2022-08-10T07:30:07.002Z,32.18
2022-08-10T07:32:33.393Z,32.28
2022-08-10T07:34:59.776Z,32.22
2022-08-10T07:37:26.255Z,32.28
2022-08-10T07:39:58.111Z,32.49
2022-08-10T07:42:19.054Z,32.72
2022-08-10T07:44:45.493Z,32.82
2022-08-10T07:47:11.857Z,32.39
2022-08-10T07:49:38.255Z,32.40
2022-08-10T07:52:04.614Z,32.62
2022-08-10T07:54:31.992Z,32.68
2022-08-10T07:56:58.479Z,32.77
2022-08-10T07:59:24.887Z,32.98
2022-08-10T08:01:51.292Z,33.23
2022-08-10T08:04:17.634Z,33.35
2022-08-10T08:06:44.241Z,33.36
2022-08-10T08:09:10.624Z,33.44
2022-08-10T08:11:37.005Z,33.65
2022-08-10T08:14:03.399Z,33.76
2022-08-10T08:16:29.762Z,33.83
2022-08-10T08:19:26.362Z,33.97
2022-08-10T08:24:04.513Z,34.01
2022-08-10T08:24:05.775Z,34.01
2022-08-10T08:26:15.595Z,34.13
2022-08-10T08:28:41.761Z,34.23
2022-08-10T08:31:08.127Z,34.24
2022-08-10T08:33:41.517Z,34.33
2022-08-10T08:36:00.903Z,34.55
2022-08-10T08:38:30.226Z,34.89
2022-08-10T08:40:53.752Z,35.05
2022-08-10T08:43:21.663Z,35.27
2022-08-10T08:45:50.863Z,35.37
2022-08-10T08:48:12.873Z,35.41
2022-08-10T08:50:39.293Z,35.47
2022-08-10T08:53:20.965Z,35.48
2022-08-10T08:56:04.363Z,35.57
2022-08-10T08:57:58.394Z,35.35
2022-08-10T09:00:24.917Z,35.06
2022-08-10T09:02:54.661Z,34.73
2022-08-10T09:05:17.679Z,34.65
2022-08-10T09:08:01.577Z,34.75
2022-08-10T09:10:10.548Z,34.91
2022-08-10T09:12:37.083Z,35.11
2022-08-10T09:15:03.343Z,35.18
2022-08-10T09:17:29.745Z,35.36
2022-08-10T09:19:56.109Z,35.64
2022-08-10T09:22:22.510Z,35.86
2022-08-10T09:24:48.929Z,36.05
2022-08-10T09:27:15.309Z,36.21
2022-08-10T09:29:41.668Z,36.26
2022-08-10T09:36:15.720Z,36.39
2022-08-10T09:36:20.167Z,36.54
2022-08-10T09:37:01.101Z,36.67
2022-08-10T09:40:06.965Z,36.70
2022-08-10T09:41:53.978Z,36.81
2022-08-10T09:44:20.312Z,36.85
2022-08-10T09:46:46.707Z,36.86
2022-08-10T09:49:16.074Z,36.98
2022-08-10T09:51:46.012Z,37.09
2022-08-10T09:54:05.874Z,37.22
2022-08-10T09:56:32.376Z,37.26
2022-08-10T09:59:48.250Z,37.38
2022-08-10T10:02:03.835Z,37.35
2022-08-10T10:03:51.613Z,37.31
2022-08-10T10:06:17.885Z,37.30
2022-08-10T10:08:44.298Z,37.34
2022-08-10T10:11:10.762Z,37.36
2022-08-10T10:13:41.726Z,37.46
2022-08-10T10:16:03.523Z,37.54
2022-08-10T10:18:29.926Z,37.54
2022-08-10T10:20:56.316Z,37.49
2022-08-10T10:23:22.737Z,37.22
2022-08-10T10:25:51.159Z,36.96
2022-08-10T10:28:15.956Z,36.64
2022-08-10T10:30:42.427Z,36.33
2022-08-10T10:33:08.822Z,36.13
2022-08-10T10:35:35.195Z,35.92
2022-08-10T10:38:03.559Z,35.74
2022-08-10T10:40:27.973Z,35.64
2022-08-10T10:42:54.363Z,35.52
2022-08-10T10:45:20.820Z,35.48
2022-08-10T10:47:47.194Z,35.61
2022-08-10T10:50:13.634Z,35.74
2022-08-10T10:52:39.999Z,35.91
2022-08-10T10:55:06.824Z,36.08
2022-08-10T10:57:59.415Z,36.05
2022-08-10T10:59:59.730Z,35.93
2022-08-10T11:02:26.112Z,35.81
2022-08-10T11:04:57.042Z,35.74
2022-08-10T11:07:21.961Z,35.64
2022-08-10T11:10:04.878Z,35.67
2022-08-10T11:12:13.049Z,35.60
2022-08-10T11:14:38.066Z,35.57
2022-08-10T11:17:04.450Z,35.54
2022-08-10T11:20:00.199Z,35.48
2022-08-10T11:21:57.208Z,35.21
2022-08-10T11:24:42.566Z,35.10
2022-08-10T11:26:49.951Z,35.06
2022-08-10T11:29:16.371Z,35.04
2022-08-10T11:31:42.742Z,35.03
2022-08-10T11:34:12.152Z,35.01
2022-08-10T11:36:35.490Z,35.00
2022-08-10T11:39:13.886Z,34.99
2022-08-10T11:42:08.022Z,34.93
2022-08-10T11:43:54.797Z,34.87
2022-08-10T11:46:28.447Z,34.80
2022-08-10T11:48:53.887Z,34.78
2022-08-10T11:51:14.168Z,34.75
2022-08-10T11:53:40.402Z,34.70
2022-08-10T11:56:09.716Z,34.62
2022-08-10T11:58:33.203Z,34.52
2022-08-10T12:00:59.596Z,34.42
2022-08-10T12:03:25.959Z,34.30
2022-08-10T12:05:54.996Z,34.19
2022-08-10T12:10:06.981Z,34.06
2022-08-10T12:10:45.162Z,33.92
2022-08-10T12:13:11.525Z,33.80
2022-08-10T12:15:37.885Z,33.68
2022-08-10T12:18:04.359Z,33.60
2022-08-10T12:20:30.722Z,33.55
2022-08-10T12:22:57.105Z,33.48
2022-08-10T12:25:56.409Z,33.42
2022-08-10T12:27:50.023Z,33.35
2022-08-10T12:30:16.399Z,33.29
2022-08-10T12:32:42.849Z,33.21
2022-08-10T12:35:09.284Z,33.10
2022-08-10T12:37:35.757Z,33.01
2022-08-10T12:40:33.451Z,32.89
2022-08-10T12:42:38.902Z,32.78
2022-08-10T12:44:55.649Z,32.69
2022-08-10T12:47:22.034Z,32.61
2022-08-10T12:50:31.525Z,32.54
2022-08-10T12:52:14.872Z,32.45
2022-08-10T12:54:41.268Z,32.39
2022-08-10T12:57:07.650Z,32.36
2022-08-10T12:59:34.034Z,32.34
2022-08-10T13:02:09.653Z,32.14
2022-08-10T13:04:26.891Z,32.33
2022-08-10T13:06:53.251Z,32.42
2022-08-10T13:09:19.620Z,32.45
2022-08-10T13:12:38.680Z,32.45
2022-08-10T13:14:12.387Z,32.25
2022-08-10T13:16:38.770Z,32.10
2022-08-10T13:19:05.160Z,32.20
2022-08-10T13:21:31.557Z,32.21
2022-08-10T13:24:03.949Z,32.19
2022-08-10T13:26:24.298Z,32.16
2022-08-10T13:28:50.670Z,32.14
2022-08-10T13:31:17.404Z,32.11
2022-08-10T13:34:39.390Z,32.09
2022-08-10T13:36:09.803Z,32.09
2022-08-10T13:38:36.170Z,32.07
2022-08-10T13:41:02.567Z,32.07
2022-08-10T13:43:28.949Z,32.05
2022-08-10T13:45:55.335Z,32.07
2022-08-10T13:48:21.726Z,32.05
2022-08-10T13:50:48.079Z,31.99
2022-08-10T13:53:15.639Z,32.00
2022-08-10T13:55:54.093Z,32.03
2022-08-10T13:58:07.272Z,32.17
2022-08-10T14:00:38.269Z,32.22
2022-08-10T14:03:00.081Z,31.99
2022-08-10T14:05:26.428Z,32.00
2022-08-10T14:08:00.152Z,31.64
2022-08-10T14:10:19.196Z,31.47
2022-08-10T14:12:45.584Z,31.46
2022-08-10T14:15:11.963Z,31.23
2022-08-10T14:17:42.595Z,30.99
2022-08-10T14:20:08.063Z,30.90
2022-08-10T14:22:33.909Z,30.88
2022-08-10T14:24:57.480Z,30.95
2022-08-10T14:27:23.868Z,30.69
2022-08-10T14:29:50.309Z,30.50
2022-08-10T14:32:16.679Z,30.34
2022-08-10T14:36:05.018Z,30.37
2022-08-10T14:37:09.453Z,30.30
2022-08-10T14:39:35.903Z,30.17
2022-08-10T14:42:08.857Z,30.24
2022-08-10T14:44:28.699Z,30.04
2022-08-10T14:46:55.804Z,29.82
2022-08-10T14:49:25.651Z,29.65
2022-08-10T14:51:47.810Z,29.51
2022-08-10T14:54:14.167Z,29.38
2022-08-10T14:56:40.539Z,29.30
2022-08-10T14:59:07.721Z,29.12
2022-08-10T15:02:01.124Z,29.06
2022-08-10T15:04:02.784Z,29.15
2022-08-10T15:06:30.635Z,29.03
2022-08-10T15:08:52.622Z,28.98
2022-08-10T15:12:13.242Z,29.00
2022-08-10T15:14:34.089Z,28.90
2022-08-10T15:16:13.402Z,28.85
2022-08-10T15:18:38.182Z,28.76
2022-08-10T15:21:17.153Z,28.69
2022-08-10T15:23:32.989Z,28.62
2022-08-10T15:25:58.367Z,28.59
2022-08-10T15:28:24.385Z,28.53
2022-08-10T15:30:50.828Z,28.59
2022-08-10T15:33:21.655Z,28.69
2022-08-10T15:35:43.609Z,28.55
2022-08-10T15:38:09.992Z,28.43
2022-08-10T15:40:50.546Z,28.33
2022-08-10T15:43:05.395Z,28.21
2022-08-10T15:45:29.222Z,28.21
2022-08-10T15:48:03.213Z,28.18
2022-08-10T15:50:22.032Z,28.08
2022-08-10T15:53:01.175Z,28.11
2022-08-10T15:55:43.375Z,28.14
2022-08-10T15:57:41.227Z,28.20
2022-08-10T16:00:07.603Z,28.12
2022-08-10T16:02:34.045Z,28.04
2022-08-10T16:05:00.346Z,28.02
2022-08-10T16:07:45.319Z,28.00
2022-08-10T16:10:22.990Z,27.99
2022-08-10T16:12:29.298Z,27.91
2022-08-10T16:14:45.889Z,27.90
2022-08-10T16:17:13.015Z,27.85
2022-08-10T16:19:39.381Z,27.77
2022-08-10T16:22:34.277Z,27.71
2022-08-10T16:24:32.127Z,27.71
2022-08-10T16:26:58.487Z,27.64
2022-08-10T16:29:24.875Z,27.63
2022-08-10T16:31:51.244Z,27.64
2022-08-10T16:34:17.609Z,27.68
2022-08-10T16:36:43.970Z,27.75
2022-08-10T16:39:15.787Z,27.74
2022-08-10T16:42:05.275Z,27.74
2022-08-10T16:44:03.106Z,27.82
2022-08-10T16:46:29.967Z,27.81
2022-08-10T16:48:56.362Z,27.74
2022-08-10T16:51:22.728Z,27.77
2022-08-10T16:53:49.131Z,27.75
2022-08-10T16:56:15.481Z,27.71
2022-08-10T16:58:41.899Z,27.71
2022-08-10T17:01:08.465Z,27.71
2022-08-10T17:04:07.172Z,27.68
2022-08-10T17:06:10.818Z,27.61
2022-08-10T17:08:27.681Z,27.64
2022-08-10T17:10:54.061Z,27.56
2022-08-10T17:13:20.447Z,27.50
2022-08-10T17:15:46.803Z,27.49
2022-08-10T17:18:13.268Z,27.49
2022-08-10T17:20:39.657Z,27.44
2022-08-10T17:23:06.023Z,27.46
2022-08-10T17:25:48.812Z,27.43
2022-08-10T17:28:05.004Z,27.43
2022-08-10T17:30:34.300Z,27.43
2022-08-10T17:32:51.694Z,27.33
2022-08-10T17:35:23.225Z,27.29
2022-08-10T17:37:44.445Z,27.25
2022-08-10T17:40:10.814Z,27.16
2022-08-10T17:42:37.293Z,27.14
2022-08-10T17:45:03.674Z,27.13
2022-08-10T17:47:30.038Z,27.13
2022-08-10T17:49:56.402Z,27.09
2022-08-10T17:52:22.808Z,27.03
2022-08-10T17:54:49.258Z,27.02
2022-08-10T17:57:15.685Z,27.04
2022-08-10T17:59:42.062Z,26.99
2022-08-10T18:02:08.519Z,27.00
2022-08-10T18:04:41.976Z,26.99
2022-08-10T18:07:01.247Z,26.98
2022-08-10T18:09:27.630Z,26.94
2022-08-10T18:11:54.010Z,26.94
2022-08-10T18:14:20.400Z,26.91
2022-08-10T18:16:46.765Z,26.89
2022-08-10T18:19:13.132Z,26.86
2022-08-10T18:21:39.527Z,26.85
2022-08-10T18:24:05.891Z,26.84
2022-08-10T18:26:32.370Z,26.83
2022-08-10T18:28:58.798Z,26.79
2022-08-10T18:31:25.158Z,26.74
2022-08-10T18:33:51.522Z,26.75
2022-08-10T18:36:18.005Z,26.73
2022-08-10T18:38:44.428Z,26.74
2022-08-10T18:41:10.808Z,26.74
2022-08-10T18:44:05.479Z,26.76
2022-08-10T18:46:03.659Z,26.76
2022-08-10T18:48:30.048Z,26.74
2022-08-10T18:50:56.425Z,26.75
2022-08-10T18:53:22.788Z,26.74
2022-08-10T18:56:09.122Z,26.69
2022-08-10T18:58:15.534Z,26.69
2022-08-10T19:00:42.014Z,26.69
2022-08-10T19:03:08.293Z,26.66
2022-08-10T19:05:34.665Z,26.60
2022-08-10T19:08:01.027Z,26.62
2022-08-10T19:10:27.407Z,26.62
2022-08-10T19:12:53.790Z,26.58
2022-08-10T19:15:20.162Z,26.56
2022-08-10T19:18:02.823Z,26.55
2022-08-10T19:20:12.928Z,26.55
2022-08-10T19:22:39.327Z,26.52
2022-08-10T19:25:05.716Z,26.52
2022-08-10T19:27:32.070Z,26.51
2022-08-10T19:30:11.666Z,26.51
2022-08-10T19:32:24.949Z,26.49
2022-08-10T19:34:51.310Z,26.46
2022-08-10T19:37:17.698Z,26.47
2022-08-10T19:39:51.118Z,26.46
2022-08-10T19:42:11.479Z,26.46
2022-08-10T19:44:36.835Z,26.44
2022-08-10T19:47:03.278Z,26.40
2022-08-10T19:49:29.765Z,26.40
2022-08-10T19:51:56.127Z,26.33
2022-08-10T19:54:22.497Z,26.34
2022-08-10T19:56:48.899Z,26.38
2022-08-10T19:59:15.267Z,26.38
2022-08-10T20:01:55.208Z,26.35
2022-08-10T20:04:08.025Z,26.34
2022-08-10T20:06:34.393Z,26.32
2022-08-10T20:09:00.761Z,26.31
2022-08-10T20:11:45.819Z,26.35
2022-08-10T20:13:53.612Z,26.33
2022-08-10T20:16:20.016Z,26.30
2022-08-10T20:18:46.449Z,26.33
2022-08-10T20:21:12.812Z,26.28
2022-08-10T20:23:39.212Z,26.29
2022-08-10T20:26:05.579Z,26.30
2022-08-10T20:28:32.612Z,26.26
2022-08-10T20:30:58.358Z,26.31
2022-08-10T20:33:24.838Z,26.30
2022-08-10T20:35:51.205Z,26.31
2022-08-10T20:38:17.564Z,26.37
2022-08-10T20:40:43.940Z,26.36
2022-08-10T20:43:10.310Z,26.34
2022-08-10T20:45:57.951Z,26.37
2022-08-10T20:48:03.130Z,26.36
2022-08-10T20:50:29.565Z,26.35
2022-08-10T20:52:55.997Z,26.34
2022-08-10T20:55:22.424Z,26.31
2022-08-10T20:57:54.051Z,26.33
2022-08-10T21:00:15.297Z,26.32
2022-08-10T21:02:41.655Z,26.36
2022-08-10T21:05:08.019Z,26.37
2022-08-10T21:07:58.235Z,26.38
2022-08-10T21:10:00.918Z,26.37
2022-08-10T21:12:27.299Z,26.36
2022-08-10T21:14:53.692Z,26.36
2022-08-10T21:17:20.117Z,26.35
2022-08-10T21:19:55.455Z,26.33
2022-08-10T21:22:12.882Z,26.34
2022-08-10T21:24:39.324Z,26.35
2022-08-10T21:27:08.090Z,26.37
2022-08-10T21:29:37.864Z,26.33
2022-08-10T21:31:58.618Z,26.34
2022-08-10T21:34:31.882Z,26.34
2022-08-10T21:36:51.394Z,26.35
2022-08-10T21:39:20.117Z,26.35
2022-08-10T21:41:57.767Z,26.31
2022-08-10T21:44:10.522Z,26.32
2022-08-10T21:46:36.882Z,26.32
2022-08-10T21:49:03.343Z,26.31
2022-08-10T21:52:01.756Z,26.31
2022-08-10T21:53:56.107Z,26.32
2022-08-10T21:56:22.494Z,26.32
2022-08-10T21:58:48.921Z,26.30
2022-08-10T22:01:15.339Z,26.28
2022-08-10T22:03:41.694Z,26.25
2022-08-10T22:06:08.096Z,26.24
2022-08-10T22:08:34.463Z,26.26
2022-08-10T22:11:00.842Z,26.28
2022-08-10T22:13:27.205Z,26.26
2022-08-10T22:16:05.449Z,26.24
2022-08-10T22:18:31.548Z,26.24
2022-08-10T22:20:46.364Z,26.24
2022-08-10T22:25:39.123Z,26.23
2022-08-10T22:28:05.518Z,26.20
2022-08-10T22:30:34.437Z,26.13
2022-08-10T22:31:27.192Z,26.23
2022-08-10T22:32:58.261Z,26.12
2022-08-10T22:35:24.623Z,26.11
2022-08-10T22:37:51.000Z,26.08
2022-08-10T22:40:17.555Z,26.06
2022-08-10T22:42:58.341Z,26.08
2022-08-10T22:45:10.389Z,26.05
2022-08-10T22:47:36.693Z,25.97
2022-08-10T22:50:07.321Z,25.91
2022-08-10T22:52:29.475Z,25.95
2022-08-10T22:54:55.870Z,26.01
2022-08-10T22:57:22.237Z,26.04
2022-08-10T22:59:48.614Z,26.08
2022-08-10T23:02:15.065Z,26.10
2022-08-10T23:04:44.759Z,26.10
2022-08-10T23:07:07.730Z,26.13
2022-08-10T23:09:34.101Z,26.13
2022-08-10T23:12:00.656Z,26.13
2022-08-10T23:14:26.898Z,26.08
2022-08-10T23:16:53.259Z,26.08
2022-08-10T23:19:19.655Z,26.09
2022-08-10T23:22:03.123Z,26.05
2022-08-10T23:24:12.480Z,26.05
2022-08-10T23:26:38.915Z,26.03
2022-08-10T23:29:12.365Z,26.01
2022-08-10T23:32:01.282Z,25.96
2022-08-10T23:33:58.119Z,25.97
2022-08-10T23:36:34.117Z,25.93
2022-08-10T23:39:19.957Z,25.83
2022-08-10T23:41:17.236Z,25.81
2022-08-10T23:44:02.822Z,25.73
2022-08-10T23:46:10.074Z,25.73
2022-08-10T23:48:36.512Z,25.76
2022-08-10T23:51:02.893Z,25.76
2022-08-10T23:53:29.254Z,25.74
2022-08-10T23:55:55.709Z,25.71
2022-08-10T23:58:31.919Z,25.62
